createdAt,value
2019-04-27T00:04:52.836Z,32.70
2019-04-27T00:10:03.334Z,32.70
2019-04-27T00:15:13.189Z,32.70
2019-04-27T00:20:23.985Z,32.60
2019-04-27T00:25:32.829Z,32.60
2019-04-27T00:30:41.424Z,32.70
2019-04-27T00:35:51.177Z,32.70
2019-04-27T00:41:00.869Z,32.70
2019-04-27T00:46:10.372Z,32.80
2019-04-27T00:51:18.426Z,32.90
2019-04-27T00:56:28.433Z,33.00
2019-04-27T01:01:38.149Z,33.10
2019-04-27T01:06:46.550Z,33.10
2019-04-27T01:11:55.616Z,33.30
2019-04-27T01:17:03.382Z,33.30
2019-04-27T01:22:11.221Z,33.40
2019-04-27T01:27:20.728Z,33.60
2019-04-27T01:32:30.018Z,33.60
2019-04-27T01:37:38.768Z,33.70
2019-04-27T01:42:48.396Z,33.70
2019-04-27T01:47:56.956Z,33.80
2019-04-27T01:53:05.519Z,33.90
2019-04-27T01:58:14.377Z,34.00
2019-04-27T02:03:24.327Z,34.10
2019-04-27T02:08:33.278Z,34.20
2019-04-27T02:13:41.643Z,34.20
2019-04-27T02:18:50.277Z,34.30
2019-04-27T02:23:59.839Z,34.30
2019-04-27T02:29:09.337Z,34.30
2019-04-27T02:34:20.271Z,34.40
2019-04-27T02:39:29.756Z,34.40
2019-04-27T02:44:40.503Z,34.50
2019-04-27T02:49:50.702Z,34.70
2019-04-27T02:54:59.355Z,34.70
2019-04-27T03:00:10.496Z,34.80
2019-04-27T03:05:20.509Z,35.00
2019-04-27T03:10:29.737Z,35.10
2019-04-27T03:15:40.301Z,35.20
2019-04-27T03:20:50.337Z,35.20
2019-04-27T03:26:00.321Z,35.30
2019-04-27T03:31:12.686Z,35.40
2019-04-27T03:36:21.201Z,35.60
2019-04-27T03:41:29.199Z,35.70
2019-04-27T03:46:39.742Z,35.80
2019-04-27T03:51:49.902Z,35.90
2019-04-27T03:57:02.406Z,36.00
2019-04-27T04:02:10.140Z,36.20
2019-04-27T04:07:19.713Z,36.20
2019-04-27T04:12:30.244Z,36.40
2019-04-27T04:17:40.254Z,36.50
2019-04-27T04:22:51.228Z,36.70
2019-04-27T04:28:00.587Z,36.80
2019-04-27T04:33:10.184Z,36.90
2019-04-27T04:38:20.596Z,37.10
2019-04-27T04:43:30.209Z,37.20
2019-04-27T04:48:40.327Z,37.40
2019-04-27T04:53:48.893Z,37.50
2019-04-27T04:59:00.016Z,37.60
2019-04-27T05:04:29.058Z,37.80
2019-04-27T05:09:37.138Z,37.90
2019-04-27T05:14:45.670Z,38.00
2019-04-27T05:19:55.194Z,38.10
2019-04-27T05:25:03.594Z,38.30
2019-04-27T05:30:12.297Z,38.40
2019-04-27T05:35:20.252Z,38.50
2019-04-27T05:40:29.140Z,38.70
2019-04-27T05:45:39.647Z,38.80
2019-04-27T05:50:51.445Z,38.90
2019-04-27T05:55:59.340Z,39.00
2019-04-27T06:01:11.257Z,39.10
2019-04-27T06:06:19.931Z,39.30
2019-04-27T06:11:28.734Z,39.40
2019-04-27T06:16:36.870Z,39.50
2019-04-27T06:22:05.095Z,39.60
2019-04-27T06:27:13.828Z,39.60
2019-04-27T06:32:22.300Z,39.70
2019-04-27T06:37:31.087Z,39.80
2019-04-27T06:42:40.161Z,39.90
2019-04-27T06:47:51.050Z,39.90
2019-04-27T06:53:00.115Z,39.80
2019-04-27T06:58:09.001Z,40.00
2019-04-27T07:03:18.819Z,40.20
2019-04-27T07:08:28.639Z,40.30
2019-04-27T07:13:38.992Z,40.40
2019-04-27T07:18:47.275Z,40.40
2019-04-27T07:23:59.077Z,40.50
2019-04-27T07:29:09.587Z,40.60
2019-04-27T07:40:03.542Z,40.70
2019-04-27T07:45:12.032Z,40.90
2019-04-27T07:50:20.526Z,41.00
2019-04-27T07:55:29.150Z,41.00
2019-04-27T08:00:37.391Z,40.90
2019-04-27T08:05:45.699Z,40.90
2019-04-27T08:10:53.723Z,41.00
2019-04-27T08:16:02.200Z,41.00
2019-04-27T08:21:10.520Z,41.10
2019-04-27T08:26:19.956Z,41.30
2019-04-27T08:31:29.692Z,41.40
2019-04-27T08:36:39.019Z,41.40
2019-04-27T08:41:46.934Z,41.50
2019-04-27T08:46:56.579Z,41.60
2019-04-27T08:52:04.816Z,41.70
2019-04-27T08:57:13.146Z,41.60
2019-04-27T09:02:21.819Z,41.50
2019-04-27T09:07:31.833Z,41.30
2019-04-27T09:12:42.625Z,41.10
2019-04-27T09:17:52.138Z,41.10
2019-04-27T09:23:00.655Z,41.10
2019-04-27T09:28:08.898Z,41.00
2019-04-27T09:33:17.505Z,40.90
2019-04-27T09:38:26.462Z,40.90
2019-04-27T09:43:36.621Z,40.90
2019-04-27T09:48:46.484Z,40.80
2019-04-27T09:53:56.256Z,40.80
2019-04-27T09:59:06.335Z,41.00
2019-04-27T10:04:15.695Z,41.00
2019-04-27T10:09:22.828Z,41.00
2019-04-27T10:14:31.690Z,41.00
2019-04-27T10:19:40.408Z,41.00
2019-04-27T10:24:48.511Z,40.90
2019-04-27T10:29:56.972Z,40.90
2019-04-27T10:35:07.671Z,40.90
2019-04-27T10:40:16.193Z,40.80
2019-04-27T10:45:24.521Z,40.70
2019-04-27T10:50:33.089Z,40.50
2019-04-27T10:55:41.469Z,40.40
2019-04-27T11:00:50.630Z,40.20
2019-04-27T11:06:00.052Z,40.20
2019-04-27T11:11:08.104Z,40.10
2019-04-27T11:16:15.993Z,40.10
2019-04-27T11:21:26.087Z,40.00
2019-04-27T11:26:33.790Z,39.90
2019-04-27T11:31:42.747Z,39.80
2019-04-27T11:36:55.162Z,39.70
2019-04-27T11:42:03.710Z,39.40
2019-04-27T11:47:12.462Z,39.30
2019-04-27T11:52:21.055Z,39.30
2019-04-27T11:57:29.704Z,39.10
2019-04-27T12:02:37.740Z,38.90
2019-04-27T12:07:47.745Z,38.80
2019-04-27T12:12:56.296Z,38.80
2019-04-27T12:18:08.820Z,38.80
2019-04-27T12:23:16.363Z,38.70
2019-04-27T12:28:25.560Z,38.40
2019-04-27T12:33:33.337Z,38.30
2019-04-27T12:38:41.654Z,38.40
2019-04-27T12:43:49.561Z,38.10
2019-04-27T12:48:57.997Z,38.10
2019-04-27T12:54:07.556Z,38.10
2019-04-27T12:59:16.843Z,37.80
2019-04-27T13:04:25.234Z,37.90
2019-04-27T13:09:33.625Z,37.90
2019-04-27T13:14:41.702Z,37.80
2019-04-27T13:19:49.917Z,37.70
2019-04-27T13:24:58.223Z,37.60
2019-04-27T13:30:07.475Z,37.70
2019-04-27T13:35:16.045Z,37.60
2019-04-27T13:40:25.917Z,37.50
2019-04-27T13:45:36.248Z,37.50
2019-04-27T13:50:47.117Z,37.50
2019-04-27T13:55:56.769Z,37.40
2019-04-27T14:01:05.694Z,37.30
2019-04-27T14:06:14.080Z,37.30
2019-04-27T14:11:23.065Z,37.30
2019-04-27T14:16:31.351Z,37.20
2019-04-27T14:21:40.569Z,37.20
2019-04-27T14:26:48.884Z,37.10
2019-04-27T14:31:58.685Z,37.10
2019-04-27T14:37:08.546Z,37.00
2019-04-27T14:42:16.723Z,36.90
2019-04-27T14:47:25.444Z,36.90
2019-04-27T14:52:34.096Z,36.80
2019-04-27T14:57:42.588Z,36.80
2019-04-27T15:02:51.031Z,36.60
2019-04-27T15:08:01.687Z,36.60
2019-04-27T15:13:08.620Z,36.50
2019-04-27T15:18:17.225Z,36.50
2019-04-27T15:23:26.590Z,36.40
2019-04-27T15:28:35.522Z,36.30
2019-04-27T15:33:46.748Z,36.30
2019-04-27T15:38:55.517Z,36.10
2019-04-27T15:44:06.945Z,36.20
2019-04-27T15:49:13.075Z,36.00
2019-04-27T15:54:22.352Z,36.00
2019-04-27T15:59:37.220Z,36.00
2019-04-27T16:04:40.103Z,35.90
2019-04-27T16:09:49.047Z,35.90
2019-04-27T16:14:58.218Z,35.80
2019-04-27T16:20:10.197Z,35.80
2019-04-27T16:25:18.651Z,35.70
2019-04-27T16:30:28.651Z,35.70
2019-04-27T16:35:38.540Z,35.70
2019-04-27T16:40:46.135Z,35.60
2019-04-27T16:45:57.962Z,35.60
2019-04-27T16:51:03.550Z,35.50
2019-04-27T16:56:15.185Z,35.40
2019-04-27T17:01:23.191Z,35.40
2019-04-27T17:06:31.299Z,35.40
2019-04-27T17:11:43.659Z,35.30
2019-04-27T17:16:50.477Z,35.30
2019-04-27T17:21:59.900Z,35.20
2019-04-27T17:27:11.654Z,35.10
2019-04-27T17:32:19.875Z,35.10
2019-04-27T17:37:32.225Z,35.10
2019-04-27T17:42:37.603Z,35.10
2019-04-27T17:47:45.954Z,35.00
2019-04-27T17:52:56.837Z,35.00
2019-04-27T17:58:05.281Z,35.00
2019-04-27T18:03:17.551Z,34.90
2019-04-27T18:08:25.202Z,34.90
2019-04-27T18:13:32.494Z,34.90
2019-04-27T18:18:42.019Z,34.80
2019-04-27T18:23:55.148Z,34.80
2019-04-27T18:29:02.096Z,34.70
2019-04-27T18:34:14.970Z,34.70
2019-04-27T18:39:19.329Z,34.70
2019-04-27T18:44:30.517Z,34.70
2019-04-27T18:49:39.818Z,34.60
2019-04-27T18:54:48.070Z,34.60
2019-04-27T18:59:58.202Z,34.50
2019-04-27T19:05:08.746Z,34.50
2019-04-27T19:10:16.262Z,34.50
2019-04-27T19:15:24.610Z,34.50
2019-04-27T19:20:32.953Z,34.40
2019-04-27T19:25:42.905Z,34.40
2019-04-27T19:30:52.394Z,34.40
2019-04-27T19:36:05.942Z,34.30
2019-04-27T19:41:14.266Z,34.30
2019-04-27T19:46:22.104Z,34.30
2019-04-27T19:51:30.690Z,34.20
2019-04-27T19:56:39.049Z,34.30
2019-04-27T20:01:48.610Z,34.20
2019-04-27T20:06:57.275Z,34.10
2019-04-27T20:12:09.756Z,34.10
2019-04-27T20:17:15.653Z,34.10
2019-04-27T20:22:24.431Z,34.10
2019-04-27T20:27:44.943Z,34.10
2019-04-27T20:32:42.226Z,34.00
2019-04-27T20:37:51.857Z,34.10
2019-04-27T20:43:01.544Z,34.00
2019-04-27T20:48:11.095Z,34.00
2019-04-27T20:53:20.876Z,33.90
2019-04-27T20:58:31.010Z,33.90
2019-04-27T21:03:41.105Z,33.90
2019-04-27T21:08:51.351Z,33.90
2019-04-27T21:14:01.013Z,33.80
2019-04-27T21:19:10.953Z,33.80
2019-04-27T21:24:20.751Z,33.80
2019-04-27T21:29:28.496Z,33.70
2019-04-27T21:34:36.970Z,33.70
2019-04-27T21:39:45.086Z,33.60
2019-04-27T21:44:53.672Z,33.60
2019-04-27T21:50:01.816Z,33.60
2019-04-27T21:55:13.084Z,33.60
2019-04-27T22:00:23.985Z,33.50
2019-04-27T22:05:33.549Z,33.40
2019-04-27T22:10:41.667Z,33.40
2019-04-27T22:15:49.734Z,33.40
2019-04-27T22:20:58.271Z,33.40
2019-04-27T22:26:07.257Z,33.30
2019-04-27T22:31:15.589Z,33.30
2019-04-27T22:36:24.135Z,33.30
2019-04-27T22:41:32.388Z,33.20
2019-04-27T22:46:41.471Z,33.20
2019-04-27T22:51:51.159Z,33.10
2019-04-27T22:57:01.084Z,33.10
2019-04-27T23:02:11.778Z,33.10
2019-04-27T23:07:21.271Z,33.10
2019-04-27T23:12:31.543Z,33.10
2019-04-27T23:17:42.642Z,33.10
2019-04-27T23:22:50.274Z,33.00
2019-04-27T23:27:58.574Z,33.10
2019-04-27T23:33:06.794Z,33.10
2019-04-27T23:38:18.089Z,33.10
2019-04-27T23:43:26.234Z,33.10
2019-04-27T23:48:34.844Z,33.20
2019-04-27T23:53:42.912Z,33.20
2019-04-27T23:58:51.147Z,33.30
